Time;durP1;ratioP1;P1;durP2;ratioP2;P2;SDS_P1;SDS_P2;PMS_P1;PMS_P2;Temp;Humidity;BMP_temperature;BMP_pressure;BME280_temperature;BME280_humidity;BME280_pressure;Samples;Min_cycle;Max_cycle;Signal;HPM_P1;HPM_P2
2024/01/17 00:00:37;;;;;;;8.00;3.57;;;-0.30;70.20;;;;;;5038216;28;20044;-74
2024/01/17 00:03:03;;;;;;;8.60;3.60;;;-0.30;70.50;;;;;;5024530;28;20049;-74
2024/01/17 00:05:29;;;;;;;8.70;3.80;;;-0.30;70.10;;;;;;5027170;28;20394;-73
2024/01/17 00:07:55;;;;;;;10.57;3.47;;;-0.40;69.80;;;;;;5012430;28;20078;-75
2024/01/17 00:10:21;;;;;;;12.00;4.07;;;-0.40;69.40;;;;;;5013343;28;20114;-74
2024/01/17 00:12:46;;;;;;;8.77;3.60;;;-0.40;69.30;;;;;;4998268;28;20050;-74
2024/01/17 00:15:12;;;;;;;10.20;3.47;;;-0.50;69.20;;;;;;5009809;28;20105;-72
2024/01/17 00:17:38;;;;;;;7.67;3.83;;;-0.50;69.40;;;;;;5017544;28;20581;-73
2024/01/17 00:20:04;;;;;;;9.50;4.00;;;-0.50;69.20;;;;;;5036316;28;20157;-74
2024/01/17 00:22:29;;;;;;;7.23;3.40;;;-0.50;69.50;;;;;;5007349;28;20042;-73
2024/01/17 00:24:55;;;;;;;11.60;3.90;;;-0.60;69.60;;;;;;5007276;28;20056;-73
2024/01/17 00:27:24;;;;;;;7.37;3.43;;;-0.60;69.60;;;;;;5007844;28;20086;-73
2024/01/17 00:29:56;;;;;;;5.83;3.50;;;-0.60;69.50;;;;;;5015331;28;20126;-73
2024/01/17 00:32:25;;;;;;;10.37;3.80;;;-0.60;69.80;;;;;;5006605;28;20058;-73
2024/01/17 00:34:51;;;;;;;8.47;4.10;;;-0.60;70.00;;;;;;5040190;28;20084;-73
2024/01/17 00:37:17;;;;;;;7.40;4.07;;;-0.60;70.00;;;;;;5007942;28;20049;-74
2024/01/17 00:39:43;;;;;;;12.87;4.23;;;-0.60;69.50;;;;;;5006137;28;20049;-74
2024/01/17 00:42:08;;;;;;;6.97;4.10;;;-0.60;69.90;;;;;;5009278;28;20064;-74
2024/01/17 00:44:38;;;;;;;15.67;4.43;;;-0.60;70.30;;;;;;5021123;28;20073;-73
2024/01/17 00:47:04;;;;;;;10.57;4.53;;;-0.60;70.10;;;;;;5005967;28;20129;-74
2024/01/17 00:49:30;;;;;;;6.73;4.13;;;-0.60;70.30;;;;;;5007759;28;20049;-74
2024/01/17 00:51:56;;;;;;;10.03;5.03;;;-0.60;70.10;;;;;;5036637;28;20050;-73
2024/01/17 00:54:22;;;;;;;10.40;5.47;;;-0.60;70.40;;;;;;5008435;28;20069;-73
2024/01/17 00:56:48;;;;;;;11.97;5.57;;;-0.60;70.40;;;;;;5006968;28;20049;-74
2024/01/17 00:59:13;;;;;;;9.90;4.90;;;-0.60;70.20;;;;;;5007013;28;20100;-73
2024/01/17 01:01:39;;;;;;;12.67;5.33;;;-0.60;70.30;;;;;;5003839;28;20509;-74
2024/01/17 01:04:05;;;;;;;12.40;5.23;;;-0.50;70.40;;;;;;5006615;28;20490;-74
2024/01/17 01:06:32;;;;;;;10.60;5.60;;;-0.50;70.40;;;;;;5019391;28;20053;-73
2024/01/17 01:08:57;;;;;;;11.80;6.13;;;-0.50;70.60;;;;;;5025469;28;20274;-73
2024/01/17 01:11:23;;;;;;;13.80;6.30;;;-0.50;70.50;;;;;;5027377;28;20057;-73
2024/01/17 01:13:49;;;;;;;14.70;6.30;;;-0.50;70.50;;;;;;5023407;28;20125;-73
2024/01/17 01:16:14;;;;;;;12.57;6.27;;;-0.50;70.70;;;;;;5025957;28;20049;-74
2024/01/17 01:18:40;;;;;;;15.33;6.43;;;-0.50;71.00;;;;;;5024691;28;20050;-73
2024/01/17 01:21:05;;;;;;;12.20;6.63;;;-0.50;70.80;;;;;;5026321;28;20049;-74
2024/01/17 01:23:31;;;;;;;12.93;6.00;;;-0.50;70.50;;;;;;5022579;28;20057;-74
2024/01/17 01:25:57;;;;;;;12.03;6.63;;;-0.50;70.70;;;;;;5020604;28;20123;-73
2024/01/17 01:28:22;;;;;;;14.07;6.60;;;-0.50;71.10;;;;;;5012166;28;20053;-73
2024/01/17 01:30:48;;;;;;;13.43;6.40;;;-0.50;71.10;;;;;;5016810;28;20124;-73
2024/01/17 01:33:14;;;;;;;11.30;6.30;;;-0.50;71.10;;;;;;5022449;28;20037;-74
2024/01/17 01:35:40;;;;;;;13.77;6.80;;;-0.50;71.20;;;;;;5019872;28;20128;-73
2024/01/17 01:38:05;;;;;;;13.33;6.17;;;-0.50;71.40;;;;;;5026901;28;20168;-75
2024/01/17 01:40:31;;;;;;;14.17;6.03;;;-0.50;71.40;;;;;;5024891;28;20045;-73
2024/01/17 01:43:00;;;;;;;11.27;6.53;;;-0.50;71.50;;;;;;5032458;28;20045;-73
2024/01/17 01:45:25;;;;;;;13.20;6.70;;;-0.40;71.00;;;;;;5026480;28;20090;-73
2024/01/17 01:47:51;;;;;;;15.13;6.87;;;-0.40;71.10;;;;;;5025747;28;20045;-73
2024/01/17 01:50:18;;;;;;;12.30;6.63;;;-0.40;71.40;;;;;;5026481;28;20088;-74
2024/01/17 01:52:48;;;;;;;14.50;6.80;;;-0.40;71.40;;;;;;5025327;28;20057;-73
2024/01/17 01:55:13;;;;;;;14.63;7.10;;;-0.40;71.40;;;;;;5026409;28;20057;-73
2024/01/17 01:57:41;;;;;;;14.53;6.67;;;-0.40;71.30;;;;;;5025884;28;20053;-74
2024/01/17 02:00:07;;;;;;;14.20;7.40;;;-0.40;71.50;;;;;;5003057;28;20502;-73
2024/01/17 02:02:33;;;;;;;12.67;7.20;;;-0.40;71.40;;;;;;5006734;28;20046;-74
2024/01/17 02:05:03;;;;;;;12.30;7.20;;;-0.40;71.60;;;;;;5014469;28;20042;-73
2024/01/17 02:07:30;;;;;;;17.43;7.57;;;-0.40;71.70;;;;;;5020574;28;20049;-75
2024/01/17 02:09:56;;;;;;;13.77;7.17;;;-0.40;71.50;;;;;;5036487;28;20048;-74
2024/01/17 02:12:22;;;;;;;10.30;7.47;;;-0.50;71.60;;;;;;5045426;28;20053;-74
2024/01/17 02:14:48;;;;;;;13.93;8.33;;;-0.50;72.00;;;;;;5042215;28;20072;-74
2024/01/17 02:17:13;;;;;;;15.63;8.27;;;-0.50;72.10;;;;;;5009533;28;20041;-73
2024/01/17 02:19:41;;;;;;;15.73;8.37;;;-0.50;71.80;;;;;;5044808;28;20053;-73
2024/01/17 02:22:07;;;;;;;15.30;8.40;;;-0.50;72.10;;;;;;5013049;28;20045;-73
2024/01/17 02:24:33;;;;;;;17.97;9.03;;;-0.60;72.30;;;;;;5037611;28;20053;-74
2024/01/17 02:26:59;;;;;;;18.80;8.67;;;-0.60;72.20;;;;;;5022843;28;20042;-73
2024/01/17 02:29:26;;;;;;;15.00;8.63;;;-0.60;72.20;;;;;;5017060;28;20072;-73
2024/01/17 02:31:52;;;;;;;17.97;9.13;;;-0.70;72.20;;;;;;5027786;28;20128;-73
2024/01/17 02:34:18;;;;;;;18.10;9.13;;;-0.70;72.50;;;;;;5032183;28;20042;-72
2024/01/17 02:36:44;;;;;;;13.97;8.57;;;-0.70;72.50;;;;;;5017303;28;20504;-72
2024/01/17 02:39:10;;;;;;;20.80;9.60;;;-0.70;72.60;;;;;;5040828;28;20174;-73
2024/01/17 02:41:36;;;;;;;17.60;9.77;;;-0.70;72.70;;;;;;5012570;28;20087;-73
2024/01/17 02:44:02;;;;;;;16.20;9.17;;;-0.70;73.00;;;;;;5044593;28;20044;-75
2024/01/17 02:46:28;;;;;;;16.97;10.67;;;-0.80;73.00;;;;;;5031986;28;20064;-74
2024/01/17 02:48:54;;;;;;;15.43;9.40;;;-0.80;72.90;;;;;;5033516;28;20049;-74
2024/01/17 02:51:20;;;;;;;20.10;10.10;;;-0.80;73.00;;;;;;5030579;28;20057;-73
2024/01/17 02:53:45;;;;;;;14.40;9.70;;;-0.90;73.20;;;;;;5040037;28;20084;-74
2024/01/17 02:56:11;;;;;;;17.33;9.73;;;-0.90;73.20;;;;;;5044506;28;20045;-74
2024/01/17 02:58:37;;;;;;;15.03;9.37;;;-0.90;73.30;;;;;;5027434;28;20049;-74
2024/01/17 03:01:03;;;;;;;16.47;10.03;;;-0.90;73.50;;;;;;5023058;28;20064;-74
2024/01/17 03:03:29;;;;;;;21.10;9.70;;;-0.90;73.60;;;;;;5044234;28;20384;-74
2024/01/17 03:05:56;;;;;;;20.03;10.13;;;-0.90;73.70;;;;;;5041913;28;20053;-74
2024/01/17 03:08:22;;;;;;;19.23;10.20;;;-0.90;73.80;;;;;;5045348;28;20064;-74
2024/01/17 03:10:47;;;;;;;20.20;10.50;;;-1.00;73.90;;;;;;5043978;28;20496;-73
2024/01/17 03:13:14;;;;;;;21.33;10.27;;;-1.00;74.00;;;;;;5045813;28;20049;-73
2024/01/17 03:15:40;;;;;;;18.07;10.23;;;-1.00;73.90;;;;;;5026521;28;20045;-74
2024/01/17 03:18:13;;;;;;;18.60;9.93;;;-1.00;73.90;;;;;;5042905;28;20037;-74
2024/01/17 03:20:40;;;;;;;16.87;9.87;;;-1.00;74.00;;;;;;5034565;28;20087;-73
2024/01/17 03:23:06;;;;;;;17.33;10.43;;;-1.00;73.90;;;;;;5027344;28;20045;-74
2024/01/17 03:25:32;;;;;;;21.23;10.50;;;-1.00;74.00;;;;;;5029884;28;20081;-75
2024/01/17 03:27:58;;;;;;;19.67;10.80;;;-1.00;74.00;;;;;;5034235;28;20079;-74
2024/01/17 03:30:24;;;;;;;18.60;10.00;;;-1.00;73.90;;;;;;5053045;28;20049;-74
2024/01/17 03:32:49;;;;;;;21.27;10.43;;;-1.00;73.90;;;;;;5042143;28;20052;-73
2024/01/17 03:35:15;;;;;;;16.23;10.00;;;-1.00;74.20;;;;;;5027037;28;20489;-75
2024/01/17 03:37:41;;;;;;;19.47;10.93;;;-1.00;74.20;;;;;;5011924;28;20057;-73
2024/01/17 03:40:07;;;;;;;18.73;9.80;;;-1.00;74.20;;;;;;5016678;28;20690;-74
2024/01/17 03:42:33;;;;;;;24.43;11.13;;;-1.00;74.20;;;;;;5034827;28;20505;-73
2024/01/17 03:44:58;;;;;;;17.93;10.90;;;-0.90;74.30;;;;;;5064702;28;20044;-73
2024/01/17 03:47:24;;;;;;;19.37;10.93;;;-1.00;74.50;;;;;;5047095;28;20100;-74
2024/01/17 03:49:50;;;;;;;23.90;11.63;;;-1.00;74.50;;;;;;5033340;28;20045;-74
2024/01/17 03:52:16;;;;;;;18.77;10.80;;;-1.00;74.40;;;;;;5038854;28;20057;-73
2024/01/17 03:54:41;;;;;;;23.00;11.60;;;-1.00;74.40;;;;;;5017216;28;20049;-74
2024/01/17 03:57:08;;;;;;;19.90;11.30;;;-1.00;74.40;;;;;;5020162;28;20099;-73
2024/01/17 03:59:34;;;;;;;21.23;11.50;;;-1.00;74.50;;;;;;5026902;28;20049;-73
2024/01/17 04:02:00;;;;;;;19.40;11.03;;;-1.00;74.40;;;;;;5045346;28;20549;-74
2024/01/17 04:04:27;;;;;;;22.87;11.90;;;-1.10;74.60;;;;;;5026735;28;20049;-73
2024/01/17 04:06:53;;;;;;;19.60;12.40;;;-1.10;74.70;;;;;;5043648;28;20475;-74
2024/01/17 04:09:19;;;;;;;22.10;11.90;;;-1.10;74.70;;;;;;5039847;28;20447;-73
2024/01/17 04:11:45;;;;;;;23.27;12.33;;;-1.10;74.80;;;;;;5046161;28;20136;-74
2024/01/17 04:14:12;;;;;;;22.40;12.63;;;-1.10;74.80;;;;;;5046986;28;20503;-73
2024/01/17 04:16:39;;;;;;;19.67;12.83;;;-1.10;74.80;;;;;;5045959;28;20136;-74
2024/01/17 04:19:06;;;;;;;22.97;12.77;;;-1.10;74.80;;;;;;5043474;28;20167;-74
2024/01/17 04:21:32;;;;;;;20.10;12.23;;;-1.10;75.00;;;;;;5029458;28;20044;-73
2024/01/17 04:23:58;;;;;;;20.83;12.03;;;-1.10;75.00;;;;;;5046678;28;20052;-74
2024/01/17 04:26:25;;;;;;;18.30;11.33;;;-1.10;75.10;;;;;;5048561;28;20056;-74
2024/01/17 04:28:54;;;;;;;19.37;12.27;;;-1.10;75.10;;;;;;5020302;28;20475;-73
2024/01/17 04:31:28;;;;;;;24.63;12.47;;;-1.10;75.00;;;;;;5029885;28;20360;-74
2024/01/17 04:33:54;;;;;;;22.13;12.37;;;-1.10;75.00;;;;;;5038737;28;20942;-73
2024/01/17 04:36:21;;;;;;;21.40;12.57;;;-1.00;75.00;;;;;;5009830;28;20443;-74
2024/01/17 04:38:47;;;;;;;21.10;12.33;;;-1.00;75.00;;;;;;5045204;28;20056;-74
2024/01/17 04:41:16;;;;;;;22.50;12.70;;;-1.00;75.10;;;;;;5029335;28;20051;-73
2024/01/17 04:43:44;;;;;;;23.37;12.27;;;-1.00;75.00;;;;;;5031772;28;20493;-74
2024/01/17 04:46:14;;;;;;;20.47;12.03;;;-1.00;75.10;;;;;;5010020;28;20053;-73
2024/01/17 04:48:41;;;;;;;19.10;9.90;;;-1.00;74.80;;;;;;5010043;28;20049;-74
2024/01/17 04:51:08;;;;;;;26.13;15.03;;;-1.00;74.80;;;;;;5028872;28;20079;-74
2024/01/17 04:53:34;;;;;;;19.07;11.87;;;-1.00;74.70;;;;;;5043955;28;20046;-73
2024/01/17 04:56:00;;;;;;;27.93;12.87;;;-0.90;74.70;;;;;;5027816;28;20047;-73
2024/01/17 04:58:26;;;;;;;21.17;13.07;;;-0.90;74.70;;;;;;5027739;28;20053;-74
2024/01/17 05:00:52;;;;;;;21.27;12.17;;;-1.00;74.60;;;;;;5045780;28;20044;-74
2024/01/17 05:03:18;;;;;;;24.50;12.30;;;-1.00;74.40;;;;;;5028109;28;20064;-73
2024/01/17 05:05:44;;;;;;;22.57;13.17;;;-1.00;74.50;;;;;;5046840;28;20504;-74
2024/01/17 05:08:10;;;;;;;21.83;12.23;;;-1.00;74.50;;;;;;5026202;28;20136;-73
2024/01/17 05:10:36;;;;;;;21.80;13.40;;;-1.10;74.60;;;;;;5044450;28;20063;-74
2024/01/17 05:13:02;;;;;;;25.03;12.60;;;-1.10;74.50;;;;;;5027469;28;20045;-74
2024/01/17 05:15:27;;;;;;;22.87;12.37;;;-1.10;74.50;;;;;;5051832;28;20492;-74
2024/01/17 05:17:54;;;;;;;26.40;13.53;;;-1.10;74.90;;;;;;5041742;28;20037;-73
2024/01/17 05:20:20;;;;;;;28.90;13.37;;;-1.10;74.80;;;;;;5036841;28;20045;-73
2024/01/17 05:22:45;;;;;;;22.10;12.27;;;-1.10;75.00;;;;;;5041205;28;20333;-73
2024/01/17 05:25:11;;;;;;;21.77;12.67;;;-1.20;75.00;;;;;;5044296;28;20041;-73
2024/01/17 05:27:40;;;;;;;21.37;13.33;;;-1.20;74.90;;;;;;5026475;28;20053;-73
2024/01/17 05:30:09;;;;;;;26.03;15.73;;;-1.20;75.00;;;;;;5036057;28;20115;-74
2024/01/17 05:32:39;;;;;;;20.10;12.90;;;-1.20;75.00;;;;;;5056989;28;20041;-73
2024/01/17 05:35:05;;;;;;;21.87;12.83;;;-1.20;75.00;;;;;;5039739;28;20407;-73
2024/01/17 05:37:31;;;;;;;24.30;12.93;;;-1.20;75.00;;;;;;5021840;28;20033;-73
2024/01/17 05:39:57;;;;;;;21.20;13.03;;;-1.20;75.10;;;;;;5025150;28;20049;-74
2024/01/17 05:42:22;;;;;;;22.53;13.47;;;-1.20;74.90;;;;;;5014357;28;20060;-73
2024/01/17 05:44:48;;;;;;;22.50;13.20;;;-1.30;74.80;;;;;;5034804;28;20045;-74
2024/01/17 05:47:14;;;;;;;30.57;15.80;;;-1.30;75.00;;;;;;5021569;28;20112;-73
2024/01/17 05:49:40;;;;;;;24.83;13.97;;;-1.30;75.00;;;;;;5019327;28;20077;-74
2024/01/17 05:52:06;;;;;;;21.37;13.17;;;-1.30;75.10;;;;;;5024497;28;20080;-73
2024/01/17 05:54:31;;;;;;;22.60;14.07;;;-1.40;75.10;;;;;;5022774;28;20072;-74
2024/01/17 05:56:57;;;;;;;28.10;14.53;;;-1.40;75.20;;;;;;5025110;28;20082;-74
2024/01/17 05:59:24;;;;;;;26.10;13.43;;;-1.50;75.10;;;;;;5038336;28;20115;-74
2024/01/17 06:01:50;;;;;;;20.47;12.93;;;-1.50;75.30;;;;;;5034806;28;20512;-73
2024/01/17 06:04:15;;;;;;;24.70;14.20;;;-1.50;75.30;;;;;;5042269;28;20143;-73
2024/01/17 06:06:41;;;;;;;26.87;14.03;;;-1.50;75.30;;;;;;5042078;28;20052;-73
2024/01/17 06:09:07;;;;;;;22.43;12.70;;;-1.60;75.50;;;;;;5025231;28;20078;-73
2024/01/17 06:11:33;;;;;;;24.90;14.00;;;-1.60;75.60;;;;;;5024547;28;20053;-73
2024/01/17 06:13:59;;;;;;;27.00;13.87;;;-1.60;75.50;;;;;;5043310;28;20104;-73
2024/01/17 06:16:25;;;;;;;26.10;13.93;;;-1.70;75.50;;;;;;5043036;28;20127;-74
2024/01/17 06:18:51;;;;;;;28.87;16.13;;;-1.70;75.60;;;;;;5016609;28;20341;-74
2024/01/17 06:21:17;;;;;;;28.53;13.67;;;-1.70;75.70;;;;;;5026958;28;20047;-73
2024/01/17 06:23:44;;;;;;;26.37;15.47;;;-1.70;75.70;;;;;;5032817;28;20073;-73
2024/01/17 06:26:09;;;;;;;31.87;16.60;;;-1.80;75.70;;;;;;5031212;28;20221;-73
2024/01/17 06:28:35;;;;;;;25.67;13.80;;;-1.80;75.70;;;;;;5010616;28;20495;-73
2024/01/17 06:31:04;;;;;;;25.10;14.23;;;-1.80;75.80;;;;;;5018454;28;20116;-74
2024/01/17 06:33:29;;;;;;;31.83;16.13;;;-1.90;75.80;;;;;;5034686;28;20056;-72
2024/01/17 06:35:57;;;;;;;24.93;14.50;;;-1.90;75.80;;;;;;5020718;28;20037;-74
2024/01/17 06:38:23;;;;;;;24.27;14.57;;;-1.90;75.80;;;;;;5027727;28;20041;-73
2024/01/17 06:40:49;;;;;;;26.50;15.50;;;-1.90;75.90;;;;;;5023574;28;20076;-73
2024/01/17 06:43:15;;;;;;;29.63;15.70;;;-1.90;76.00;;;;;;5027950;28;20053;-73
2024/01/17 06:45:40;;;;;;;26.83;15.03;;;-1.90;75.90;;;;;;5042762;28;20044;-74
2024/01/17 06:48:06;;;;;;;26.57;15.23;;;-1.90;75.80;;;;;;5045152;28;20043;-73
2024/01/17 06:50:32;;;;;;;28.13;15.30;;;-1.90;75.80;;;;;;5035396;28;20060;-74
2024/01/17 06:52:58;;;;;;;22.17;13.87;;;-1.90;75.70;;;;;;5027693;28;20040;-73
2024/01/17 06:55:23;;;;;;;31.40;14.13;;;-1.90;75.70;;;;;;5045104;28;20064;-73
2024/01/17 06:57:49;;;;;;;26.60;14.23;;;-1.90;75.70;;;;;;5025919;28;20488;-72
2024/01/17 07:00:15;;;;;;;29.33;17.23;;;-2.00;75.70;;;;;;5015823;28;20425;-72
2024/01/17 07:02:41;;;;;;;23.13;14.30;;;-2.00;75.80;;;;;;5033952;28;20044;-73
2024/01/17 07:05:07;;;;;;;23.57;12.97;;;-2.00;75.80;;;;;;5026614;28;20053;-73
2024/01/17 07:07:32;;;;;;;26.43;13.93;;;-2.10;75.90;;;;;;5046308;28;20099;-73
2024/01/17 07:09:58;;;;;;;25.20;14.97;;;-2.10;75.90;;;;;;5027301;28;20488;-72
2024/01/17 07:12:24;;;;;;;26.33;14.63;;;-2.10;75.90;;;;;;5027012;28;20128;-72
2024/01/17 07:14:50;;;;;;;20.97;13.57;;;-2.00;75.90;;;;;;5026759;28;20135;-73
2024/01/17 07:17:15;;;;;;;23.33;13.70;;;-2.00;76.00;;;;;;5040822;28;20045;-73
2024/01/17 07:19:41;;;;;;;34.57;15.83;;;-2.00;75.80;;;;;;5044178;28;20057;-74
2024/01/17 07:22:09;;;;;;;23.90;14.00;;;-2.00;75.70;;;;;;5027157;28;20485;-72
2024/01/17 07:24:35;;;;;;;23.93;14.03;;;-2.10;75.70;;;;;;5044543;28;20072;-73
2024/01/17 07:27:00;;;;;;;23.83;13.30;;;-2.10;75.60;;;;;;5022286;28;20073;-72
2024/01/17 07:29:26;;;;;;;23.07;12.90;;;-2.10;75.60;;;;;;5053367;28;20061;-73
2024/01/17 07:31:52;;;;;;;20.93;13.20;;;-2.10;75.60;;;;;;5049020;28;20047;-72
2024/01/17 07:34:18;;;;;;;21.80;12.27;;;-2.10;75.50;;;;;;5067038;28;20510;-72
2024/01/17 07:36:44;;;;;;;20.70;12.30;;;-2.10;75.40;;;;;;5051343;28;20048;-72
2024/01/17 07:39:14;;;;;;;21.87;12.17;;;-2.10;75.20;;;;;;5020071;28;20053;-73
2024/01/17 07:41:40;;;;;;;19.13;11.90;;;-2.10;75.00;;;;;;5034049;28;20052;-72
2024/01/17 07:44:06;;;;;;;22.53;12.07;;;-2.10;75.20;;;;;;5049006;28;20374;-72
2024/01/17 07:46:32;;;;;;;20.87;11.77;;;-2.10;75.00;;;;;;5028904;28;20088;-73
2024/01/17 07:48:58;;;;;;;21.17;12.47;;;-2.10;75.00;;;;;;5038816;28;20054;-72
2024/01/17 07:51:24;;;;;;;19.70;11.27;;;-2.10;74.90;;;;;;5021533;28;20076;-73
2024/01/17 07:53:49;;;;;;;19.07;10.93;;;-2.10;75.00;;;;;;5042411;28;20045;-73
2024/01/17 07:56:15;;;;;;;23.47;11.73;;;-2.10;75.00;;;;;;5039387;28;20053;-73
2024/01/17 07:58:41;;;;;;;23.07;11.60;;;-2.10;74.90;;;;;;5038213;28;20049;-72
2024/01/17 08:01:07;;;;;;;24.37;12.37;;;-2.10;75.00;;;;;;5041458;28;20099;-73
2024/01/17 08:03:32;;;;;;;18.23;10.47;;;-2.20;75.00;;;;;;5020235;28;20529;-74
2024/01/17 08:05:58;;;;;;;24.60;13.10;;;-2.20;74.90;;;;;;5036896;28;20511;-73
2024/01/17 08:08:24;;;;;;;22.00;11.27;;;-2.20;75.00;;;;;;5041774;28;20171;-72
2024/01/17 08:10:49;;;;;;;21.43;11.43;;;-2.20;75.00;;;;;;5039537;28;20060;-73
2024/01/17 08:13:15;;;;;;;20.70;11.93;;;-2.20;75.00;;;;;;5029916;28;20042;-73
2024/01/17 08:15:41;;;;;;;20.87;11.43;;;-2.20;75.00;;;;;;5027470;28;20512;-72
2024/01/17 08:18:08;;;;;;;21.57;12.23;;;-2.20;75.00;;;;;;5029165;28;20444;-72
2024/01/17 08:20:34;;;;;;;20.93;11.97;;;-2.20;75.10;;;;;;5020421;28;20080;-72
2024/01/17 08:23:00;;;;;;;22.30;16.27;;;-2.20;75.00;;;;;;5033531;28;20052;-72
2024/01/17 08:25:26;;;;;;;24.83;13.67;;;-2.30;75.10;;;;;;5019598;28;20080;-72
2024/01/17 08:27:54;;;;;;;20.20;12.43;;;-2.30;75.00;;;;;;5029764;28;20053;-73
2024/01/17 08:30:20;;;;;;;24.43;12.57;;;-2.30;75.20;;;;;;5031630;28;20357;-73
2024/01/17 08:32:45;;;;;;;21.73;12.47;;;-2.30;75.20;;;;;;5036807;28;20876;-73
2024/01/17 08:35:12;;;;;;;22.33;12.03;;;-2.30;75.10;;;;;;5029976;28;20543;-73
2024/01/17 08:37:38;;;;;;;23.87;12.50;;;-2.30;75.10;;;;;;5030608;28;20512;-73
2024/01/17 08:40:04;;;;;;;27.50;12.73;;;-2.30;75.00;;;;;;5030572;28;20066;-72
2024/01/17 08:42:30;;;;;;;18.77;12.30;;;-2.30;75.00;;;;;;5013703;28;20118;-73
2024/01/17 08:44:55;;;;;;;23.03;13.33;;;-2.30;75.00;;;;;;5031313;28;20049;-72
2024/01/17 08:47:21;;;;;;;24.97;15.53;;;-2.30;75.20;;;;;;5023329;28;20308;-72
2024/01/17 08:49:47;;;;;;;23.03;13.40;;;-2.30;75.00;;;;;;5039389;28;20500;-73
2024/01/17 08:52:12;;;;;;;24.83;13.83;;;-2.30;74.80;;;;;;5038877;28;20048;-73
2024/01/17 08:54:38;;;;;;;22.30;13.00;;;-2.30;75.00;;;;;;5033697;28;20040;-73
2024/01/17 08:57:04;;;;;;;22.83;12.77;;;-2.20;75.00;;;;;;5045056;28;20479;-74
2024/01/17 08:59:33;;;;;;;25.97;13.57;;;-2.20;75.10;;;;;;5015655;28;20096;-74
2024/01/17 09:01:59;;;;;;;21.30;11.97;;;-2.20;75.00;;;;;;5043782;28;20143;-74
2024/01/17 09:04:25;;;;;;;25.00;11.87;;;-2.10;74.70;;;;;;5044298;28;20532;-73
2024/01/17 09:06:51;;;;;;;22.03;12.17;;;-2.10;74.70;;;;;;5032407;28;20065;-73
2024/01/17 09:09:17;;;;;;;22.50;12.10;;;-2.10;74.70;;;;;;5012990;28;20155;-73
2024/01/17 09:11:42;;;;;;;23.47;13.00;;;-2.10;74.80;;;;;;5013422;28;20780;-73
2024/01/17 09:14:10;;;;;;;24.37;12.70;;;-2.10;74.70;;;;;;5046628;28;20127;-73
2024/01/17 09:16:36;;;;;;;21.63;11.47;;;-2.00;74.90;;;;;;5013116;28;20048;-74
2024/01/17 09:19:01;;;;;;;21.47;11.63;;;-2.00;74.40;;;;;;5014766;28;20224;-73
2024/01/17 09:21:28;;;;;;;25.07;12.03;;;-2.00;74.60;;;;;;5032873;28;20074;-73
2024/01/17 09:23:54;;;;;;;22.67;11.93;;;-1.90;74.40;;;;;;5035478;28;20131;-74
2024/01/17 09:26:20;;;;;;;17.30;10.77;;;-1.90;74.40;;;;;;5030014;28;20059;-74
2024/01/17 09:28:45;;;;;;;19.67;10.87;;;-1.90;74.00;;;;;;5016611;28;20502;-73
2024/01/17 09:31:11;;;;;;;20.43;11.63;;;-1.80;73.80;;;;;;5014026;28;20132;-73
2024/01/17 09:33:37;;;;;;;19.63;10.57;;;-1.80;73.60;;;;;;5029897;28;20048;-73
2024/01/17 09:36:04;;;;;;;19.57;10.17;;;-1.70;73.40;;;;;;5010336;28;20106;-74
2024/01/17 09:38:29;;;;;;;20.23;11.20;;;-1.70;73.40;;;;;;5013520;28;20510;-74
2024/01/17 09:40:55;;;;;;;19.17;11.07;;;-1.70;73.00;;;;;;4996831;28;20045;-73
2024/01/17 09:43:22;;;;;;;19.70;11.03;;;-1.70;72.90;;;;;;5033188;28;20053;-74
2024/01/17 09:45:48;;;;;;;18.97;10.17;;;-1.60;73.20;;;;;;5036699;28;20097;-73
2024/01/17 09:48:16;;;;;;;18.53;10.23;;;-1.60;73.10;;;;;;5036542;28;20060;-73
2024/01/17 09:50:46;;;;;;;16.73;10.23;;;-1.60;73.20;;;;;;5015160;28;20044;-72
2024/01/17 09:53:15;;;;;;;20.30;11.03;;;-1.60;73.20;;;;;;5011485;28;20053;-74
2024/01/17 09:55:41;;;;;;;17.63;10.57;;;-1.60;73.20;;;;;;5018965;28;20045;-74
2024/01/17 09:58:09;;;;;;;19.13;10.80;;;-1.60;73.20;;;;;;5042520;28;20865;-74
2024/01/17 10:00:36;;;;;;;20.00;11.53;;;-1.50;73.50;;;;;;5033818;28;20884;-74
2024/01/17 10:03:04;;;;;;;18.43;10.57;;;-1.50;73.20;;;;;;5014408;28;20059;-74
2024/01/17 10:05:31;;;;;;;19.20;10.67;;;-1.50;73.40;;;;;;5036310;28;20048;-74
2024/01/17 10:07:59;;;;;;;21.17;11.50;;;-1.50;73.30;;;;;;5012673;28;20067;-74
2024/01/17 10:10:25;;;;;;;19.20;10.63;;;-1.50;73.30;;;;;;5030491;28;20232;-74
2024/01/17 10:12:54;;;;;;;22.73;11.20;;;-1.50;73.20;;;;;;5014658;28;20087;-73
2024/01/17 10:15:25;;;;;;;17.80;10.47;;;-1.50;73.10;;;;;;5031205;28;20564;-73
2024/01/17 10:17:51;;;;;;;18.85;11.57;;;-1.50;73.30;;;;;;5035685;28;20053;-73
2024/01/17 10:20:17;;;;;;;18.60;10.53;;;-1.50;73.50;;;;;;5018959;28;20087;-73
2024/01/17 10:22:46;;;;;;;17.20;10.13;;;-1.60;73.70;;;;;;5031096;28;20064;-74
2024/01/17 10:25:12;;;;;;;18.10;10.47;;;-1.50;73.30;;;;;;5037891;28;20049;-74
2024/01/17 10:27:37;;;;;;;23.63;10.77;;;-1.60;73.30;;;;;;5011560;28;20055;-73
2024/01/17 10:30:04;;;;;;;23.00;11.50;;;-1.60;73.50;;;;;;5019455;28;20036;-73
2024/01/17 10:32:31;;;;;;;19.10;10.63;;;-1.60;73.60;;;;;;5045005;28;20053;-73
2024/01/17 10:34:58;;;;;;;20.30;10.93;;;-1.60;73.60;;;;;;5012588;28;20049;-74
2024/01/17 10:37:27;;;;;;;19.40;10.53;;;-1.60;73.50;;;;;;5029633;28;20048;-73
2024/01/17 10:40:11;;;;;;;22.70;10.57;;;-1.50;73.20;;;;;;5032293;28;20072;-74
2024/01/17 10:42:37;;;;;;;17.13;10.27;;;-1.50;73.30;;;;;;5012336;28;20052;-73
2024/01/17 10:45:05;;;;;;;18.93;10.37;;;-1.50;73.40;;;;;;5012039;28;20044;-73
2024/01/17 10:47:31;;;;;;;17.90;9.90;;;-1.50;73.60;;;;;;5024668;28;20053;-73
2024/01/17 10:49:57;;;;;;;16.57;10.03;;;-1.50;73.50;;;;;;5022147;28;20083;-73
2024/01/17 10:52:25;;;;;;;14.80;10.23;;;-1.50;73.60;;;;;;5025754;28;20056;-74
2024/01/17 10:54:56;;;;;;;17.20;10.50;;;-1.30;73.70;;;;;;5014290;28;20048;-73
2024/01/17 10:57:24;;;;;;;;;;;-1.30;73.30;;;;;;5030222;28;20520;-74
2024/01/17 10:59:50;;;;;;;17.33;8.93;;;-1.30;73.00;;;;;;5012097;28;19928;-75
2024/01/17 11:02:21;;;;;;;18.40;9.67;;;-1.30;72.60;;;;;;5010114;28;20543;-73
2024/01/17 11:05:02;;;;;;;11.57;8.02;;;-1.30;72.70;;;;;;5036074;28;20059;-74
2024/01/17 11:07:30;;;;;;;16.80;9.15;;;-1.30;73.00;;;;;;5011948;28;20048;-73
2024/01/17 11:10:00;;;;;;;15.80;9.00;;;-1.30;73.00;;;;;;5020013;28;20056;-74
2024/01/17 11:12:27;;;;;;;15.27;9.40;;;-1.30;72.90;;;;;;5014892;28;20060;-74
2024/01/17 11:14:55;;;;;;;20.83;9.87;;;-1.30;72.90;;;;;;5007709;28;20086;-74
2024/01/17 11:17:22;;;;;;;17.50;9.30;;;-1.30;72.60;;;;;;5009149;28;20484;-75
2024/01/17 11:19:51;;;;;;;18.13;9.83;;;-1.30;72.90;;;;;;5010802;28;20099;-74
2024/01/17 11:22:18;;;;;;;20.17;9.27;;;-1.30;73.10;;;;;;5027000;28;20518;-75
2024/01/17 11:24:55;;;;;;;16.43;9.43;;;-1.30;73.00;;;;;;5018623;28;20583;-74
2024/01/17 11:27:42;;;;;;;20.53;9.77;;;-1.30;73.30;;;;;;5016393;28;21014;-74
2024/01/17 11:30:17;;;;;;;17.97;9.20;;;-1.30;73.60;;;;;;5036356;28;20032;-74
2024/01/17 11:33:03;;;;;;;19.07;9.23;;;-1.30;73.60;;;;;;5037668;28;20045;-75
2024/01/17 11:35:46;;;;;;;22.77;9.73;;;-1.30;73.30;;;;;;5013062;28;20040;-74
2024/01/17 11:38:27;;;;;;;21.03;10.20;;;-1.30;73.30;;;;;;5030647;28;20045;-74
2024/01/17 11:40:54;;;;;;;19.33;9.85;;;-1.30;73.80;;;;;;5021984;28;20142;-74
2024/01/17 11:43:20;;;;;;;16.67;10.47;;;-1.40;74.20;;;;;;5031514;28;20045;-73
2024/01/17 11:45:50;;;;;;;20.87;9.60;;;-1.40;74.50;;;;;;5008260;28;20735;-74
2024/01/17 11:48:19;;;;;;;16.13;9.60;;;-1.40;74.40;;;;;;5007773;28;20883;-74
2024/01/17 11:51:00;;;;;;;17.47;9.63;;;-1.40;74.50;;;;;;5031097;28;20118;-75
2024/01/17 11:53:28;;;;;;;17.40;10.03;;;-1.50;74.60;;;;;;5010485;28;20060;-74
2024/01/17 11:55:56;;;;;;;17.00;9.73;;;-1.50;74.80;;;;;;5035890;28;20369;-75
2024/01/17 11:58:36;;;;;;;16.27;10.37;;;-1.40;75.10;;;;;;5032970;28;20051;-74
2024/01/17 12:01:17;;;;;;;22.63;11.67;;;-1.40;75.30;;;;;;5007788;28;20424;-75
2024/01/17 12:03:43;;;;;;;21.00;11.30;;;-1.30;75.70;;;;;;5027723;28;20060;-75
2024/01/17 12:06:11;;;;;;;26.00;12.57;;;-1.40;75.90;;;;;;5024947;28;20053;-74
2024/01/17 12:08:37;;;;;;;21.20;12.57;;;-1.40;76.10;;;;;;5028917;28;20131;-75
2024/01/17 12:11:04;;;;;;;23.37;12.90;;;-1.30;76.50;;;;;;5028117;28;20067;-74
2024/01/17 12:13:29;;;;;;;20.50;12.93;;;-1.30;76.70;;;;;;5028009;28;20088;-75
2024/01/17 12:15:57;;;;;;;23.40;12.60;;;-1.30;76.70;;;;;;5029983;28;20559;-74
2024/01/17 12:18:24;;;;;;;25.37;12.83;;;-1.30;76.90;;;;;;5011298;28;20041;-73
2024/01/17 12:20:51;;;;;;;26.00;13.17;;;-1.30;77.20;;;;;;5009850;28;20407;-74
2024/01/17 12:23:24;;;;;;;24.97;12.77;;;-1.30;77.40;;;;;;5032737;28;20531;-75
2024/01/17 12:25:52;;;;;;;28.53;13.80;;;-1.30;77.30;;;;;;5031994;28;20140;-74
2024/01/17 12:28:28;;;;;;;31.07;14.47;;;-1.30;77.30;;;;;;5021394;28;20396;-75